This is the latest recevied weather packets stored in our database for station/object N6RDS. If no packets are shown the sender has not sent any weather packets the latest 10 day(s).
| Time | Temp. | Humidity | Pressure | Rain* | Wind** | Luminosity | Snow |
|---|---|---|---|---|---|---|---|
| 1777730666 | 8.33° C | 38% | 1028 hPa | 0 mm | - | 122 W/m² | - |
| 1777730361 | 8.33° C | 38% | 1028 hPa | 0 mm | - | 110 W/m² | - |
| 1777730058 | 6.11° C | 42% | 1027.7 hPa | 0 mm | - | 100 W/m² | - |
| 1777729754 | 5° C | 43% | 1027.7 hPa | 0 mm | - | 88 W/m² | - |
| 1777729451 | 4.44° C | 45% | 1027.9 hPa | 0 mm | - | 77 W/m² | - |
| 1777729147 | 3.33° C | 47% | 1027.7 hPa | 0 mm | - | 68 W/m² | - |
| 1777728844 | 2.78° C | 48% | 1027.7 hPa | 0 mm | - | 60 W/m² | - |
| 1777728541 | 2.78° C | 48% | 1027.5 hPa | 0 mm | - | 52 W/m² | - |
| 1777728239 | 0.56° C | 52% | 1027.6 hPa | 0 mm | - | 44 W/m² | - |
| 1777727935 | -0.56° C | 56% | 1027.5 hPa | 0 mm | - | 37 W/m² | - |
| 1777727632 | -1.11° C | 58% | 1027.6 hPa | 0 mm | - | 29 W/m² | - |
| 1777727329 | -1.67° C | 61% | 1027.5 hPa | 0 mm | - | 23 W/m² | - |
| 1777727027 | -2.22° C | 62% | 1027.4 hPa | 0 mm | - | 18 W/m² | - |
| 1777726723 | -2.22° C | 62% | 1027.2 hPa | 0 mm | - | 14 W/m² | - |
| 1777726421 | -2.22° C | 62% | 1027.2 hPa | 0 mm | - | 12 W/m² | - |
| 1777726117 | -2.22° C | 63% | 1027.2 hPa | 0 mm | - | 9 W/m² | - |
| 1777725814 | -2.22° C | 62% | 1027.1 hPa | 0 mm | - | 6 W/m² | - |
| 1777725512 | -1.67° C | 61% | 1027.2 hPa | 0 mm | - | 4 W/m² | - |
| 1777725209 | -1.67° C | 61% | 1027.1 hPa | 0 mm | - | 2 W/m² | - |
| 1777724906 | -2.22° C | 62% | 1027 hPa | 0 mm | - | 1 W/m² | - |
| 1777724602 | -1.67° C | 61% | 1026.8 hPa | 0 mm | - | 0 W/m² | - |
| 1777724301 | -1.67° C | 60% | 1026.9 hPa | 0 mm | - | 0 W/m² | - |
| 1777723998 | -1.11° C | 59% | 1026.8 hPa | 0 mm | - | 0 W/m² | - |
| 1777723695 | -1.67° C | 61% | 1027 hPa | 0 mm | - | 0 W/m² | - |
| 1777723391 | -1.67° C | 60% | 1026.9 hPa | 0 mm | - | 0 W/m² | - |
* Rain latest hour (hover to see other rain measurements)
** Current wind speed in m/s (hover to see current wind gust speed)